Time;durP1;ratioP1;P1;durP2;ratioP2;P2;SDS_P1;SDS_P2;PMS_P1;PMS_P2;Temp;Humidity;BMP_temperature;BMP_pressure;BME280_temperature;BME280_humidity;BME280_pressure;Samples;Min_cycle;Max_cycle;Signal;HPM_P1;HPM_P2
2022/06/21 00:01:54;;;;;;;5.50;2.88;;;14.00;99.90;;;;;;5021129;28;20212;-72
2022/06/21 00:04:20;;;;;;;3.50;2.67;;;14.00;99.90;;;;;;5031641;28;20545;-72
2022/06/21 00:06:45;;;;;;;5.00;3.20;;;13.90;99.90;;;;;;5020902;28;20189;-72
2022/06/21 00:09:13;;;;;;;7.60;3.80;;;14.00;99.90;;;;;;5017334;28;20209;-70
2022/06/21 00:11:39;;;;;;;6.47;2.80;;;14.00;99.90;;;;;;5020223;28;20239;-70
2022/06/21 00:14:04;;;;;;;4.38;2.80;;;13.90;99.90;;;;;;5015064;28;20232;-71
2022/06/21 00:16:31;;;;;;;5.57;3.00;;;13.90;99.90;;;;;;5015033;28;20208;-71
2022/06/21 00:18:57;;;;;;;3.92;2.75;;;13.90;99.90;;;;;;5024048;28;20184;-71
2022/06/21 00:21:26;;;;;;;7.70;2.67;;;13.90;99.90;;;;;;5020187;28;20197;-71
2022/06/21 00:23:54;;;;;;;8.25;4.50;;;13.80;99.90;;;;;;5027438;28;20197;-71
2022/06/21 00:26:22;;;;;;;4.97;3.47;;;13.90;99.90;;;;;;5028013;28;20761;-71
2022/06/21 00:28:48;;;;;;;4.82;3.10;;;13.90;99.90;;;;;;5012060;28;20193;-71
2022/06/21 00:31:19;;;;;;;6.30;3.58;;;13.80;99.90;;;;;;5014186;28;20184;-70
2022/06/21 00:33:45;;;;;;;5.95;3.65;;;13.80;99.90;;;;;;5028753;28;20165;-71
2022/06/21 00:36:30;;;;;;;6.43;3.17;;;13.90;99.90;;;;;;5011004;28;20196;-71
2022/06/21 00:38:57;;;;;;;6.50;4.57;;;13.80;99.90;;;;;;5019586;28;20197;-71
2022/06/21 00:41:43;;;;;;;4.75;3.22;;;13.80;99.90;;;;;;5016141;28;20207;-71
2022/06/21 00:44:20;;;;;;;6.70;3.53;;;13.80;99.90;;;;;;5006770;28;20200;-71
2022/06/21 00:47:01;;;;;;;4.03;3.50;;;13.80;99.90;;;;;;5027461;28;20287;-71
2022/06/21 00:49:30;;;;;;;4.55;3.03;;;13.80;99.90;;;;;;5007541;28;20226;-71
2022/06/21 00:52:04;;;;;;;4.82;3.20;;;13.80;99.90;;;;;;5025543;28;20184;-71
2022/06/21 00:54:45;;;;;;;6.57;3.35;;;13.70;99.90;;;;;;5021517;28;20201;-71
2022/06/21 00:57:17;;;;;;;4.88;3.53;;;13.70;99.90;;;;;;5019874;28;20216;-71
2022/06/21 00:59:46;;;;;;;7.40;3.60;;;13.60;99.90;;;;;;5019371;28;20199;-71
2022/06/21 01:02:28;;;;;;;6.57;3.78;;;13.60;99.90;;;;;;5016400;28;20220;-72
2022/06/21 01:04:57;;;;;;;14.57;3.47;;;13.50;99.90;;;;;;5015601;28;20197;-71
2022/06/21 01:07:23;;;;;;;4.18;2.92;;;13.50;99.90;;;;;;5021707;28;20673;-72
2022/06/21 01:10:06;;;;;;;8.15;3.40;;;13.50;99.90;;;;;;5013245;28;20207;-72
2022/06/21 01:12:48;;;;;;;3.67;3.05;;;13.40;99.90;;;;;;5019947;28;20203;-72
2022/06/21 01:15:18;;;;;;;5.80;3.40;;;13.40;99.90;;;;;;5010139;28;20211;-72
2022/06/21 01:17:46;;;;;;;6.07;3.27;;;13.40;99.90;;;;;;5002236;28;20206;-72
2022/06/21 01:20:17;;;;;;;5.78;3.50;;;13.40;99.90;;;;;;5016983;28;20208;-72
2022/06/21 01:23:04;;;;;;;11.90;3.97;;;13.30;99.90;;;;;;5019426;28;20709;-72
2022/06/21 01:26:07;;;;;;;3.90;2.87;;;13.40;99.90;;;;;;5018162;28;20693;-72
2022/06/21 01:28:33;;;;;;;4.50;3.60;;;13.40;99.90;;;;;;5017989;28;20251;-72
2022/06/21 01:31:00;;;;;;;4.68;3.15;;;13.50;99.90;;;;;;5027595;28;20584;-72
2022/06/21 01:33:31;;;;;;;7.20;3.50;;;13.50;99.90;;;;;;5021120;28;20209;-72
2022/06/21 01:36:00;;;;;;;3.75;2.90;;;13.40;99.90;;;;;;5014143;28;20209;-72
2022/06/21 01:38:47;;;;;;;4.15;3.35;;;13.40;99.90;;;;;;5019875;28;20200;-72
2022/06/21 01:41:20;;;;;;;4.05;3.65;;;13.40;99.90;;;;;;5009419;28;20204;-72
2022/06/21 01:43:48;;;;;;;8.35;3.88;;;13.50;99.90;;;;;;5017105;28;20716;-71
2022/06/21 01:46:18;;;;;;;6.80;2.80;;;13.40;99.90;;;;;;5012734;28;20177;-72
2022/06/21 01:48:53;;;;;;;6.53;3.22;;;13.40;99.90;;;;;;5016208;28;20276;-71
2022/06/21 01:51:28;;;;;;;5.05;3.28;;;13.40;99.90;;;;;;5008587;28;20202;-72
2022/06/21 01:53:55;;;;;;;5.38;3.17;;;13.40;99.90;;;;;;5022036;28;20201;-71
2022/06/21 01:56:25;;;;;;;6.45;3.83;;;13.40;99.90;;;;;;5018235;28;20271;-72
2022/06/21 01:59:23;;;;;;;5.55;3.30;;;13.40;99.90;;;;;;5014240;28;20209;-72
2022/06/21 02:01:56;;;;;;;5.75;3.20;;;13.40;99.90;;;;;;5016748;28;20204;-72
2022/06/21 02:04:26;;;;;;;5.50;3.40;;;13.40;99.90;;;;;;5013304;28;20215;-71
2022/06/21 02:06:54;;;;;;;6.30;3.75;;;13.40;99.90;;;;;;5019993;28;20715;-72
2022/06/21 02:09:24;;;;;;;4.18;2.95;;;13.40;99.90;;;;;;5021904;28;20682;-72
2022/06/21 02:11:56;;;;;;;5.47;3.43;;;13.40;99.90;;;;;;5015506;28;20212;-71
2022/06/21 02:14:30;;;;;;;10.02;3.10;;;13.40;99.90;;;;;;5012461;28;20205;-72
2022/06/21 02:17:22;;;;;;;8.15;3.65;;;13.30;99.90;;;;;;5007212;28;20298;-72
2022/06/21 02:19:52;;;;;;;6.57;3.30;;;13.30;99.90;;;;;;4993243;28;20592;-72
2022/06/21 02:22:21;;;;;;;5.70;2.83;;;13.30;99.90;;;;;;5020921;28;20230;-72
2022/06/21 02:24:47;;;;;;;5.05;3.15;;;13.20;99.90;;;;;;5001970;28;20531;-72
2022/06/21 02:27:15;;;;;;;3.13;2.83;;;13.20;99.90;;;;;;5024150;28;20287;-71
2022/06/21 02:29:43;;;;;;;7.33;3.30;;;13.20;99.90;;;;;;5024437;28;20217;-72
2022/06/21 02:32:36;;;;;;;6.85;3.67;;;13.30;99.90;;;;;;5006536;28;20215;-71
2022/06/21 02:35:07;;;;;;;5.22;2.97;;;13.20;99.90;;;;;;5008961;28;20270;-71
2022/06/21 02:37:34;;;;;;;4.93;3.30;;;13.30;99.90;;;;;;5030003;28;20212;-72
2022/06/21 02:40:04;;;;;;;5.53;3.75;;;13.20;99.90;;;;;;5030615;28;20263;-72
2022/06/21 02:42:32;;;;;;;7.10;3.90;;;13.20;99.90;;;;;;5033220;28;20825;-72
2022/06/21 02:45:07;;;;;;;9.87;4.13;;;13.20;99.90;;;;;;5016851;28;20288;-72
2022/06/21 02:47:41;;;;;;;6.18;3.45;;;13.30;99.90;;;;;;5016039;28;20208;-72
2022/06/21 02:50:29;;;;;;;11.07;3.10;;;13.30;99.90;;;;;;5034141;28;20262;-72
2022/06/21 02:52:56;;;;;;;6.82;3.47;;;13.30;99.90;;;;;;5008838;28;20212;-72
2022/06/21 02:55:35;;;;;;;7.55;3.72;;;13.30;99.90;;;;;;5033403;28;20216;-72
2022/06/21 02:58:09;;;;;;;5.35;3.90;;;13.20;99.90;;;;;;5033772;28;20226;-71
2022/06/21 03:00:35;;;;;;;6.28;3.60;;;13.20;99.90;;;;;;5016020;28;20284;-72
2022/06/21 03:03:05;;;;;;;6.53;3.97;;;13.20;99.90;;;;;;5015628;28;20631;-72
2022/06/21 03:05:33;;;;;;;5.67;3.27;;;13.20;99.90;;;;;;5031291;28;20279;-72
2022/06/21 03:08:03;;;;;;;5.32;3.38;;;13.20;99.90;;;;;;5015451;28;20201;-72
2022/06/21 03:10:34;;;;;;;6.22;3.70;;;13.20;99.90;;;;;;5015396;28;20220;-72
2022/06/21 03:13:08;;;;;;;6.53;3.77;;;13.20;99.90;;;;;;5016223;28;20266;-72
2022/06/21 03:15:34;;;;;;;11.43;4.23;;;13.20;99.90;;;;;;5033431;28;20211;-72
2022/06/21 03:18:10;;;;;;;6.22;3.35;;;13.20;99.90;;;;;;5032748;28;20234;-72
2022/06/21 03:20:36;;;;;;;6.28;3.00;;;13.30;99.90;;;;;;5032943;28;20204;-72
2022/06/21 03:23:04;;;;;;;3.63;3.20;;;13.20;99.90;;;;;;5033116;28;20327;-72
2022/06/21 03:25:45;;;;;;;5.60;3.35;;;13.20;99.90;;;;;;5032903;28;20215;-71
2022/06/21 03:28:35;;;;;;;6.93;3.70;;;13.20;99.90;;;;;;5015061;28;20215;-72
2022/06/21 03:31:12;;;;;;;8.15;5.03;;;13.10;99.90;;;;;;5015759;28;20250;-72
2022/06/21 03:33:41;;;;;;;9.55;3.50;;;13.20;99.90;;;;;;5028474;28;20192;-72
2022/06/21 03:36:09;;;;;;;6.97;3.45;;;13.30;99.90;;;;;;5032779;28;20205;-72
2022/06/21 03:38:42;;;;;;;6.47;3.20;;;14.30;99.90;;;;;;5032084;28;20262;-72
2022/06/21 03:44:00;;;;;;;5.35;3.13;;;16.40;99.90;;;;;;5026142;28;20578;-71
2022/06/21 03:46:34;;;;;;;7.47;3.05;;;16.30;99.90;;;;;;5032496;28;20204;-71
2022/06/21 03:49:07;;;;;;;6.43;2.90;;;16.00;99.90;;;;;;5032756;28;20171;-71
2022/06/21 03:51:37;;;;;;;11.32;2.85;;;16.50;99.90;;;;;;5014674;28;20247;-72
2022/06/21 03:54:16;;;;;;;4.60;2.80;;;16.80;99.90;;;;;;5032445;28;20204;-72
2022/06/21 03:56:47;;;;;;;9.30;2.90;;;17.40;99.90;;;;;;5014234;28;20885;-72
2022/06/21 03:59:22;;;;;;;7.80;2.72;;;18.40;99.90;;;;;;5032311;28;20208;-71
2022/06/21 04:01:53;;;;;;;3.88;2.35;;;19.60;99.90;;;;;;5032451;28;20226;-72
2022/06/21 04:04:30;;;;;;;6.53;2.65;;;20.90;99.90;;;;;;5031922;28;20184;-72
2022/06/21 04:07:09;;;;;;;5.47;2.53;;;21.50;99.90;;;;;;4995839;28;20608;-72
2022/06/21 04:09:42;;;;;;;7.25;2.15;;;22.50;99.90;;;;;;5030631;28;20277;-72
2022/06/21 04:12:21;;;;;;;5.30;2.55;;;23.10;99.90;;;;;;5032157;28;20204;-72
2022/06/21 04:15:18;;;;;;;7.50;2.35;;;22.20;99.90;;;;;;4995291;28;20695;-72
2022/06/21 04:18:09;;;;;;;5.57;2.50;;;22.00;99.90;;;;;;5031969;28;20204;-72
2022/06/21 04:20:54;;;;;;;7.38;2.80;;;21.50;99.90;;;;;;5014499;28;20200;-73
2022/06/21 04:23:23;;;;;;;4.80;2.65;;;20.20;99.90;;;;;;5032221;28;20200;-72
2022/06/21 04:26:15;;;;;;;6.07;2.97;;;18.50;99.90;;;;;;5024329;28;20217;-72
2022/06/21 04:28:47;;;;;;;6.63;2.63;;;17.40;99.90;;;;;;5030752;28;20711;-72
2022/06/21 04:31:21;;;;;;;5.90;2.40;;;16.70;99.90;;;;;;5031622;28;20200;-73
2022/06/21 04:34:01;;;;;;;7.20;2.63;;;16.00;99.90;;;;;;5021261;28;20642;-72
2022/06/21 04:36:35;;;;;;;6.10;3.03;;;15.40;99.90;;;;;;5031571;28;20211;-72
2022/06/21 04:39:34;;;;;;;7.40;2.75;;;15.40;99.90;;;;;;5031547;28;20207;-72
2022/06/21 04:42:10;;;;;;;6.05;3.50;;;15.30;99.90;;;;;;5017474;28;20200;-72
2022/06/21 04:44:55;;;;;;;9.27;3.63;;;15.20;99.90;;;;;;5013651;28;20745;-72
2022/06/21 04:47:23;;;;;;;9.60;3.53;;;15.30;99.90;;;;;;5032464;28;20208;-71
2022/06/21 04:50:02;;;;;;;7.97;3.78;;;15.20;99.90;;;;;;5011774;28;20312;-71
2022/06/21 04:52:36;;;;;;;6.05;3.63;;;15.00;99.90;;;;;;5023336;28;20232;-72
2022/06/21 04:55:03;;;;;;;6.68;3.97;;;14.80;99.90;;;;;;5032070;28;20184;-72
2022/06/21 04:57:32;;;;;;;8.90;3.90;;;14.50;99.90;;;;;;5031395;28;20251;-71
2022/06/21 05:00:05;;;;;;;7.50;4.15;;;14.60;99.90;;;;;;5030993;28;20798;-71
2022/06/21 05:02:36;;;;;;;8.27;4.88;;;14.70;99.90;;;;;;5013981;28;20250;-71
2022/06/21 05:05:17;;;;;;;10.40;4.55;;;14.80;99.90;;;;;;5012791;28;20208;-71
2022/06/21 05:07:52;;;;;;;9.13;4.45;;;14.70;99.90;;;;;;5031099;28;20716;-71
2022/06/21 05:10:28;;;;;;;6.97;4.05;;;14.90;99.90;;;;;;5013009;28;20203;-71
2022/06/21 05:12:57;;;;;;;7.97;3.75;;;15.00;99.90;;;;;;5013743;28;20171;-71
2022/06/21 05:15:28;;;;;;;5.70;4.03;;;15.10;99.90;;;;;;5013413;28;20569;-71
2022/06/21 05:18:01;;;;;;;9.13;4.63;;;15.00;99.90;;;;;;5031044;28;20262;-71
2022/06/21 05:20:31;;;;;;;5.65;4.07;;;15.10;99.90;;;;;;5030566;28;20283;-71
2022/06/21 05:23:01;;;;;;;8.73;3.85;;;15.40;99.90;;;;;;5031038;28;20216;-71
2022/06/21 05:25:29;;;;;;;5.30;3.47;;;16.00;99.90;;;;;;5030966;28;20208;-72
2022/06/21 05:28:37;;;;;;;8.98;3.20;;;16.40;99.90;;;;;;5031372;28;20220;-72
2022/06/21 05:31:10;;;;;;;6.13;4.32;;;16.40;99.90;;;;;;5028238;28;20208;-72
2022/06/21 05:33:50;;;;;;;10.65;3.35;;;16.30;99.90;;;;;;5031285;28;20195;-72
2022/06/21 05:36:21;;;;;;;7.30;4.78;;;16.30;99.90;;;;;;5030972;28;20211;-72
2022/06/21 05:38:55;;;;;;;4.13;2.80;;;17.90;99.90;;;;;;5030740;28;20215;-72
2022/06/21 05:41:33;;;;;;;6.35;3.08;;;18.80;99.90;;;;;;5030958;28;20212;-72
2022/06/21 05:44:02;;;;;;;9.50;2.47;;;21.30;99.90;;;;;;5013121;28;20695;-71
2022/06/21 05:46:31;;;;;;;5.43;2.15;;;22.50;99.90;;;;;;5003864;28;20212;-72
2022/06/21 05:48:58;;;;;;;6.93;2.05;;;21.90;99.90;;;;;;5024310;28;20172;-72
2022/06/21 05:51:32;;;;;;;5.95;2.67;;;22.80;99.90;;;;;;5027702;28;20274;-72
2022/06/21 05:54:06;;;;;;;5.22;2.25;;;24.20;99.90;;;;;;5021834;28;20212;-72
2022/06/21 05:56:34;;;;;;;6.57;2.15;;;24.50;99.90;;;;;;5030111;28;20220;-72
2022/06/21 05:59:07;;;;;;;5.45;2.53;;;24.10;99.90;;;;;;5055537;23;20227;-75
2022/06/21 06:01:56;;;;;;;7.68;2.60;;;23.20;99.90;;;;;;5050626;28;20211;-76
2022/06/21 06:04:35;;;;;;;8.43;3.55;;;21.50;99.90;;;;;;5032772;28;20226;-75
2022/06/21 06:07:02;;;;;;;6.30;2.60;;;21.20;99.90;;;;;;5052118;28;20655;-76
2022/06/21 06:09:34;;;;;;;6.18;2.78;;;21.00;99.90;;;;;;5032861;28;20211;-76
2022/06/21 06:12:14;;;;;;;8.18;2.35;;;21.60;99.90;;;;;;5032792;28;20208;-76
2022/06/21 06:14:42;;;;;;;4.53;2.15;;;22.70;99.90;;;;;;5032774;28;20688;-77
2022/06/21 06:17:29;;;;;;;6.47;1.92;;;23.50;99.90;;;;;;5055111;28;20207;-78
2022/06/21 06:20:04;;;;;;;5.97;1.70;;;24.40;99.90;;;;;;5037178;28;20207;-76
2022/06/21 06:22:41;;;;;;;6.05;1.73;;;25.00;99.90;;;;;;5054507;28;20215;-78
2022/06/21 06:25:13;;;;;;;7.13;2.47;;;25.70;99.90;;;;;;5036669;28;20179;-77
2022/06/21 06:28:10;;;;;;;7.03;2.42;;;24.00;99.90;;;;;;5054781;28;20591;-76
2022/06/21 06:30:48;;;;;;;5.88;2.08;;;24.20;99.90;;;;;;5013843;28;20239;-76
2022/06/21 06:33:23;;;;;;;5.53;2.03;;;25.90;99.90;;;;;;5036474;28;20301;-74
2022/06/21 06:35:49;;;;;;;5.63;1.60;;;27.00;99.90;;;;;;5035902;28;20230;-75
2022/06/21 06:38:17;;;;;;;5.85;2.00;;;28.40;99.90;;;;;;5035888;28;20215;-76
2022/06/21 06:41:18;;;;;;;5.13;2.17;;;28.90;99.90;;;;;;5053837;28;20256;-75
2022/06/21 06:43:53;;;;;;;3.30;1.70;;;29.20;99.90;;;;;;5036319;28;20218;-75
2022/06/21 06:46:47;;;;;;;4.97;2.17;;;29.30;99.90;;;;;;5054149;28;20183;-75
2022/06/21 06:49:24;;;;;;;5.45;1.80;;;29.60;99.90;;;;;;5046344;28;20299;-74
2022/06/21 06:52:04;;;;;;;6.60;2.15;;;29.40;99.90;;;;;;5036648;28;20644;-76
2022/06/21 06:54:38;;;;;;;4.60;1.60;;;29.90;99.90;;;;;;5035697;28;20289;-78
2022/06/21 06:57:11;;;;;;;5.38;1.92;;;29.80;99.30;;;;;;5036049;28;20222;-78
2022/06/21 06:59:37;;;;;;;4.53;1.88;;;30.40;97.60;;;;;;5035641;28;20219;-75
2022/06/21 07:02:15;;;;;;;6.25;2.05;;;31.20;96.00;;;;;;5036039;28;20284;-76
2022/06/21 07:04:45;;;;;;;4.60;1.73;;;31.00;94.60;;;;;;5055128;28;20214;-76
2022/06/21 07:07:34;;;;;;;4.22;1.85;;;30.70;94.20;;;;;;5054548;28;20202;-75
2022/06/21 07:10:05;;;;;;;6.13;1.80;;;31.60;92.90;;;;;;5037329;28;20199;-74
2022/06/21 07:12:31;;;;;;;4.05;1.92;;;31.80;91.70;;;;;;5040441;28;20202;-73
2022/06/21 07:14:58;;;;;;;4.03;1.80;;;31.20;91.20;;;;;;5035808;28;20198;-75
2022/06/21 07:17:44;;;;;;;5.03;1.70;;;31.60;91.00;;;;;;5060864;28;20211;-75
2022/06/21 07:20:16;;;;;;;5.25;2.42;;;31.30;90.40;;;;;;5034806;28;20702;-75
2022/06/21 07:22:43;;;;;;;5.28;1.92;;;31.10;91.00;;;;;;5035140;28;20203;-75
2022/06/21 07:25:22;;;;;;;5.60;2.17;;;31.10;90.80;;;;;;5034647;28;20186;-76
2022/06/21 07:27:54;;;;;;;3.45;1.88;;;31.10;89.60;;;;;;5034789;28;20170;-75
2022/06/21 07:30:26;;;;;;;3.97;1.73;;;31.40;87.50;;;;;;5036026;28;20294;-75
2022/06/21 07:33:01;;;;;;;4.05;1.95;;;31.20;88.10;;;;;;5053340;28;20199;-75
2022/06/21 07:35:50;;;;;;;3.63;1.73;;;32.10;87.30;;;;;;5036619;28;20289;-75
2022/06/21 07:38:33;;;;;;;4.00;1.70;;;31.80;84.30;;;;;;5034549;28;20214;-75
2022/06/21 07:41:21;;;;;;;5.13;1.80;;;31.60;85.00;;;;;;5035322;28;20207;-75
2022/06/21 07:43:50;;;;;;;5.35;1.67;;;31.70;83.70;;;;;;5035075;28;20321;-75
2022/06/21 07:46:27;;;;;;;5.18;1.65;;;31.10;83.10;;;;;;5052502;28;20236;-77
2022/06/21 07:49:09;;;;;;;6.07;1.80;;;31.20;84.40;;;;;;5052048;28;20623;-75
2022/06/21 07:51:44;;;;;;;3.70;1.73;;;31.80;83.60;;;;;;5052691;28;20211;-76
2022/06/21 07:54:21;;;;;;;8.27;3.75;;;31.90;81.40;;;;;;5052268;28;20740;-76
2022/06/21 07:56:52;;;;;;;3.92;1.58;;;32.20;80.40;;;;;;5034036;28;20732;-73
2022/06/21 07:59:26;;;;;;;3.90;1.45;;;31.40;78.20;;;;;;5034358;28;20478;-77
2022/06/21 08:07:31;;;;;;;2.65;1.40;;;32.10;76.80;;;;;;5052044;28;20206;-77
2022/06/21 08:10:04;;;;;;;3.30;1.40;;;31.90;76.70;;;;;;5052248;28;20230;-77
2022/06/21 08:12:30;;;;;;;5.43;1.60;;;32.10;75.90;;;;;;5034259;28;20203;-77
2022/06/21 08:14:55;;;;;;;4.55;1.63;;;32.70;75.10;;;;;;5034000;28;20290;-77
2022/06/21 08:17:44;;;;;;;4.22;1.60;;;33.20;73.80;;;;;;5033928;28;20211;-78
2022/06/21 08:20:43;;;;;;;2.05;1.33;;;32.60;72.50;;;;;;5051935;28;20715;-79
2022/06/21 08:23:18;;;;;;;5.22;3.25;;;32.20;72.00;;;;;;5033978;28;20231;-77
2022/06/21 08:26:03;;;;;;;6.28;1.83;;;31.80;73.10;;;;;;5033602;28;20202;-77
2022/06/21 08:28:47;;;;;;;3.08;1.48;;;31.60;72.90;;;;;;5033119;28;20234;-76
2022/06/21 08:31:34;;;;;;;5.47;2.22;;;31.70;73.70;;;;;;5033469;28;20209;-76
2022/06/21 08:34:11;;;;;;;7.07;2.88;;;31.70;73.00;;;;;;5033940;28;20167;-75
2022/06/21 08:36:53;;;;;;;5.07;2.17;;;30.00;73.20;;;;;;5033736;28;20574;-76
2022/06/21 08:39:29;;;;;;;3.88;1.33;;;30.50;75.10;;;;;;5032474;28;20211;-76
2022/06/21 08:42:15;;;;;;;2.90;1.92;;;30.60;74.20;;;;;;5051543;28;20707;-75
2022/06/21 08:48:07;;;;;;;3.13;1.20;;;30.20;75.40;;;;;;5051210;28;20345;-75
2022/06/21 08:50:41;;;;;;;4.70;1.60;;;30.50;75.90;;;;;;5051088;28;20242;-76
2022/06/21 08:53:13;;;;;;;4.35;1.42;;;30.30;76.70;;;;;;5033577;28;20211;-76
2022/06/21 08:55:54;;;;;;;5.15;1.90;;;30.60;75.40;;;;;;5033008;28;20203;-76
2022/06/21 08:58:43;;;;;;;3.47;1.55;;;30.90;74.50;;;;;;5050885;28;20234;-76
2022/06/21 09:01:26;;;;;;;4.43;1.60;;;30.50;75.30;;;;;;5033149;28;20175;-76
2022/06/21 09:04:22;;;;;;;3.97;1.08;;;30.20;74.60;;;;;;5033468;28;20416;-74
2022/06/21 09:07:15;;;;;;;4.50;1.27;;;29.80;75.00;;;;;;5033576;28;20674;-76
2022/06/21 09:09:52;;;;;;;3.22;1.23;;;29.10;77.30;;;;;;5033014;28;20246;-76
2022/06/21 09:12:23;;;;;;;3.45;1.10;;;28.90;76.10;;;;;;5040926;28;20252;-76
2022/06/21 09:15:08;;;;;;;2.60;1.40;;;28.70;77.70;;;;;;5025424;28;20208;-76
2022/06/21 09:17:59;;;;;;;3.17;1.70;;;29.00;78.40;;;;;;5032927;28;20198;-76
2022/06/21 09:20:39;;;;;;;2.42;1.35;;;29.50;78.40;;;;;;5032717;28;20204;-76
2022/06/21 09:23:41;;;;;;;2.85;1.00;;;29.50;77.30;;;;;;5051087;28;20753;-76
2022/06/21 09:26:27;;;;;;;3.15;1.17;;;28.40;78.40;;;;;;5050930;28;20599;-75
2022/06/21 09:29:18;;;;;;;5.10;1.10;;;29.10;80.20;;;;;;5049792;28;20711;-76
2022/06/21 09:32:18;;;;;;;3.60;1.45;;;29.00;78.70;;;;;;5032876;28;20245;-75
2022/06/21 09:35:06;;;;;;;5.75;1.45;;;28.60;79.80;;;;;;5050715;28;20741;-75
2022/06/21 09:37:45;;;;;;;4.72;1.48;;;28.70;81.10;;;;;;5032731;28;20265;-76
2022/06/21 09:40:36;;;;;;;5.18;2.10;;;27.80;82.60;;;;;;5050582;28;20258;-76
2022/06/21 09:43:18;;;;;;;3.65;1.60;;;28.50;82.20;;;;;;5058845;28;20667;-75
2022/06/21 09:46:10;;;;;;;3.03;1.00;;;28.80;82.40;;;;;;5051255;28;20525;-76
2022/06/21 09:48:54;;;;;;;4.20;1.45;;;28.20;81.30;;;;;;5032700;28;20224;-77
2022/06/21 09:51:39;;;;;;;2.70;1.65;;;28.00;83.20;;;;;;5053636;28;20223;-76
2022/06/21 09:54:31;;;;;;;5.72;1.50;;;27.60;85.20;;;;;;5036681;28;20234;-76
2022/06/21 09:57:37;;;;;;;2.75;1.77;;;27.80;86.20;;;;;;5036946;28;20207;-76
2022/06/21 10:00:18;;;;;;;4.47;1.80;;;27.90;87.90;;;;;;4993072;28;20211;-76
2022/06/21 10:03:20;;;;;;;2.70;1.60;;;26.80;88.60;;;;;;5036395;28;20203;-75
2022/06/21 10:05:51;;;;;;;3.20;1.65;;;26.70;89.10;;;;;;5054571;28;20679;-76
2022/06/21 10:08:37;;;;;;;7.15;1.77;;;27.20;89.30;;;;;;5054231;28;20749;-76
2022/06/21 10:11:22;;;;;;;5.43;2.15;;;26.70;90.10;;;;;;5036293;28;20219;-77
2022/06/21 10:13:53;;;;;;;6.00;1.67;;;26.50;91.20;;;;;;5054267;28;20711;-77
2022/06/21 10:16:57;;;;;;;4.60;2.03;;;25.70;91.20;;;;;;5036538;28;20188;-75
2022/06/21 10:19:28;;;;;;;6.15;1.83;;;26.20;91.00;;;;;;4953509;28;20214;-76
2022/06/21 10:22:15;;;;;;;5.40;2.13;;;26.40;90.80;;;;;;5041054;28;20199;-76
2022/06/21 10:25:02;;;;;;;3.58;1.48;;;26.40;90.90;;;;;;5054299;28;21324;-76
2022/06/21 10:27:54;;;;;;;4.13;1.35;;;26.50;90.60;;;;;;5036150;28;20207;-76
2022/06/21 10:30:39;;;;;;;4.78;1.60;;;26.60;88.50;;;;;;5053799;28;20551;-76
2022/06/21 10:33:34;;;;;;;3.28;1.50;;;26.30;89.70;;;;;;5036367;28;20769;-76
2022/06/21 10:36:08;;;;;;;6.13;2.15;;;26.20;90.60;;;;;;5046452;28;20200;-75
2022/06/21 10:38:40;;;;;;;5.53;1.50;;;25.90;91.20;;;;;;5053286;28;20333;-77
2022/06/21 10:41:20;;;;;;;3.75;1.40;;;25.70;91.60;;;;;;5035670;28;20348;-77
2022/06/21 10:44:01;;;;;;;5.00;1.38;;;24.80;90.80;;;;;;5035513;28;20328;-76
2022/06/21 10:46:44;;;;;;;4.40;1.92;;;24.70;91.10;;;;;;5037432;28;20219;-74
2022/06/21 10:49:47;;;;;;;4.40;1.70;;;25.10;92.90;;;;;;5054625;28;20199;-75
2022/06/21 10:52:56;;;;;;;3.03;1.45;;;25.40;92.00;;;;;;5050687;28;20261;-75
2022/06/21 10:55:37;;;;;;;4.90;1.73;;;25.60;91.90;;;;;;5006005;28;20707;-74
2022/06/21 10:58:14;;;;;;;3.25;1.40;;;25.50;91.20;;;;;;5050232;28;20203;-74
2022/06/21 11:01:17;;;;;;;3.92;1.67;;;25.50;92.20;;;;;;5053473;28;20506;-75
2022/06/21 11:03:57;;;;;;;4.13;1.30;;;25.10;90.40;;;;;;5018891;28;20203;-75
2022/06/21 11:06:29;;;;;;;3.65;1.40;;;25.10;91.00;;;;;;5053370;28;20215;-72
2022/06/21 11:09:15;;;;;;;4.40;1.48;;;25.30;91.20;;;;;;5056234;28;20200;-72
2022/06/21 11:12:52;;;;;;;6.18;2.00;;;25.60;91.50;;;;;;5059549;28;20599;-72
2022/06/21 11:14:57;;;;;;;4.68;1.60;;;26.00;91.20;;;;;;5050613;28;20261;-73
2022/06/21 11:17:34;;;;;;;4.85;2.05;;;25.90;90.80;;;;;;5055232;28;20562;-73
2022/06/21 11:20:25;;;;;;;3.50;1.30;;;26.10;91.00;;;;;;5052899;28;20203;-73
2022/06/21 11:23:03;;;;;;;4.85;1.80;;;25.70;90.50;;;;;;5052941;28;20261;-72
2022/06/21 11:25:44;;;;;;;5.13;1.83;;;25.60;90.40;;;;;;5061025;28;20610;-73
2022/06/21 11:28:43;;;;;;;2.83;1.42;;;25.80;90.40;;;;;;5052697;28;20202;-73
2022/06/21 11:31:34;;;;;;;3.45;1.13;;;25.90;90.60;;;;;;5052720;28;20188;-73
2022/06/21 11:34:14;;;;;;;2.70;1.48;;;26.30;88.00;;;;;;5046839;28;20168;-72
2022/06/21 11:37:01;;;;;;;4.00;1.67;;;26.30;86.10;;;;;;5052498;28;20613;-73
2022/06/21 11:39:30;;;;;;;2.05;0.88;;;26.30;83.90;;;;;;5034376;28;20718;-72
2022/06/21 11:42:08;;;;;;;3.65;0.93;;;26.40;85.70;;;;;;5054776;28;20207;-72
2022/06/21 11:44:55;;;;;;;2.45;1.20;;;26.20;86.30;;;;;;5054093;28;20318;-73
2022/06/21 11:47:46;;;;;;;1.40;1.00;;;26.00;86.00;;;;;;5052454;28;20200;-72
2022/06/21 11:50:15;;;;;;;7.13;2.00;;;25.80;87.40;;;;;;5052743;28;20211;-73
2022/06/21 11:53:01;;;;;;;11.82;2.53;;;25.60;90.60;;;;;;5060762;28;20283;-73
2022/06/21 11:55:39;;;;;;;7.50;2.38;;;25.60;93.00;;;;;;5052321;28;20203;-73
2022/06/21 11:58:23;;;;;;;2.15;1.10;;;25.70;92.60;;;;;;5044353;28;20942;-72
2022/06/21 12:01:10;;;;;;;4.47;1.92;;;25.90;87.50;;;;;;5043709;28;20214;-72
2022/06/21 12:04:04;;;;;;;3.25;1.45;;;26.00;87.20;;;;;;5049558;28;20221;-72
2022/06/21 12:06:48;;;;;;;3.88;2.00;;;25.90;86.50;;;;;;5051486;28;20645;-72
2022/06/21 12:09:23;;;;;;;3.15;1.55;;;25.60;86.80;;;;;;5051552;28;20218;-71
2022/06/21 12:12:27;;;;;;;2.15;1.15;;;25.70;88.00;;;;;;5044444;28;20222;-71
2022/06/21 12:15:03;;;;;;;2.92;1.20;;;25.60;88.20;;;;;;5020615;28;20277;-72
2022/06/21 12:17:49;;;;;;;4.25;1.58;;;25.50;88.30;;;;;;5056014;28;20206;-72
2022/06/21 12:20:28;;;;;;;4.80;2.58;;;25.50;88.70;;;;;;5051691;28;20207;-72
2022/06/21 12:23:02;;;;;;;6.20;2.45;;;25.40;89.10;;;;;;5049523;28;20727;-72
2022/06/21 12:25:27;;;;;;;4.07;1.45;;;25.40;88.10;;;;;;5051566;28;20215;-71
2022/06/21 12:27:58;;;;;;;4.07;1.30;;;25.10;87.60;;;;;;5051637;28;20172;-71
2022/06/21 12:30:26;;;;;;;3.42;1.42;;;25.10;88.80;;;;;;5033371;28;20204;-72
2022/06/21 12:32:59;;;;;;;3.85;2.00;;;24.70;89.50;;;;;;5051197;28;20275;-70
2022/06/21 12:35:52;;;;;;;4.55;2.08;;;24.80;90.40;;;;;;5051234;28;20203;-71
2022/06/21 12:38:27;;;;;;;5.10;1.00;;;24.80;90.50;;;;;;5050415;28;20231;-72
2022/06/21 12:41:13;;;;;;;2.33;1.20;;;24.60;90.30;;;;;;5043991;28;20213;-72
2022/06/21 12:43:46;;;;;;;5.95;1.83;;;24.80;89.60;;;;;;5052436;28;20223;-72
2022/06/21 12:46:24;;;;;;;4.18;2.55;;;24.90;90.10;;;;;;5055881;28;20633;-73
2022/06/21 12:49:17;;;;;;;6.28;2.20;;;25.00;89.30;;;;;;5048504;28;20207;-72
2022/06/21 12:51:53;;;;;;;4.97;2.15;;;25.00;89.80;;;;;;5032704;28;20726;-72
2022/06/21 12:54:37;;;;;;;3.58;1.45;;;24.90;90.70;;;;;;5047169;28;20198;-71
2022/06/21 12:57:06;;;;;;;4.88;1.65;;;24.90;90.70;;;;;;5050072;28;20226;-71
2022/06/21 12:59:31;;;;;;;4.07;1.95;;;25.10;91.00;;;;;;5050292;28;20219;-72
2022/06/21 13:02:12;;;;;;;2.90;1.75;;;25.20;91.60;;;;;;5052690;28;20203;-71
2022/06/21 13:05:15;;;;;;;2.67;1.42;;;25.30;90.40;;;;;;5045705;28;20215;-73
2022/06/21 13:08:06;;;;;;;1.83;0.82;;;25.30;87.60;;;;;;5049559;28;20271;-75
2022/06/21 13:11:07;;;;;;;2.75;1.00;;;25.20;86.50;;;;;;5050250;28;20207;-74
2022/06/21 13:14:03;;;;;;;4.78;2.17;;;25.20;86.50;;;;;;5050157;28;20233;-74
2022/06/21 13:16:56;;;;;;;3.70;2.03;;;25.30;87.60;;;;;;5054768;28;20671;-73
2022/06/21 13:19:49;;;;;;;4.03;1.83;;;25.50;88.70;;;;;;5049883;28;20223;-73
2022/06/21 13:22:33;;;;;;;2.38;1.35;;;25.40;88.80;;;;;;5046303;28;20254;-72
2022/06/21 13:26:09;;;;;;;4.28;1.58;;;24.90;87.70;;;;;;5044103;28;20171;-74
2022/06/21 13:29:01;;;;;;;2.33;1.67;;;24.60;89.00;;;;;;4961913;28;20214;-74
2022/06/21 13:31:30;;;;;;;2.72;1.10;;;24.90;89.20;;;;;;5045827;28;20211;-73
2022/06/21 13:33:59;;;;;;;4.10;1.40;;;25.10;89.70;;;;;;5050790;28;20512;-73
2022/06/21 13:36:31;;;;;;;8.35;1.98;;;25.20;90.00;;;;;;5047080;28;20203;-74
2022/06/21 13:39:12;;;;;;;4.07;1.23;;;25.30;89.90;;;;;;5049866;28;20214;-73
2022/06/21 13:44:37;;;;;;;2.13;1.08;;;25.00;88.70;;;;;;5042357;28;20215;-74
2022/06/21 13:47:13;;;;;;;3.92;1.50;;;24.90;88.90;;;;;;5044154;28;20216;-74
2022/06/21 13:49:45;;;;;;;5.03;1.27;;;24.90;89.80;;;;;;5049571;28;20703;-74
2022/06/21 13:52:23;;;;;;;2.33;1.30;;;24.90;90.00;;;;;;5049948;28;20186;-74
2022/06/21 13:55:28;;;;;;;3.55;1.45;;;24.90;89.60;;;;;;5044303;28;20535;-74
2022/06/21 13:58:04;;;;;;;2.60;0.88;;;24.80;89.50;;;;;;5043248;28;20261;-74